createdAt,value
2016-11-07T00:00:59.002Z,7.6
2016-11-07T00:01:59.273Z,7.52
2016-11-07T00:02:59.018Z,7.67
2016-11-07T00:03:58.994Z,7.53
2016-11-07T00:04:59.148Z,7.6
2016-11-07T00:05:59.394Z,7.58
2016-11-07T00:06:58.958Z,7.56
2016-11-07T00:07:59.111Z,7.56
2016-11-07T00:08:59.073Z,7.63
2016-11-07T00:09:59.477Z,7.59
2016-11-07T00:10:59.851Z,7.55
2016-11-07T00:11:59.111Z,7.66
2016-11-07T00:12:59.150Z,7.62
2016-11-07T00:13:59.080Z,7.58
2016-11-07T00:14:58.967Z,7.53
2016-11-07T00:15:58.947Z,7.5
2016-11-07T00:16:59.009Z,7.66
2016-11-07T00:17:59.264Z,7.53
2016-11-07T00:18:58.990Z,7.5
2016-11-07T00:19:59.123Z,7.56
2016-11-07T00:20:59.063Z,7.6
2016-11-07T00:21:58.995Z,7.66
2016-11-07T00:22:58.999Z,7.62
2016-11-07T00:23:58.996Z,7.58
2016-11-07T00:24:58.973Z,7.59
2016-11-07T00:25:58.937Z,7.56
2016-11-07T00:26:59.780Z,7.56
2016-11-07T00:27:58.956Z,7.52
2016-11-07T00:28:59.048Z,7.55
2016-11-07T00:29:59.116Z,7.53
2016-11-07T00:30:58.963Z,7.55
2016-11-07T00:31:59.036Z,7.41
2016-11-07T00:32:59.044Z,7.5
2016-11-07T00:33:59.006Z,7.47
2016-11-07T00:34:58.996Z,7.52
2016-11-07T00:35:58.993Z,7.45
2016-11-07T00:36:58.955Z,7.52
2016-11-07T00:37:59.065Z,7.5
2016-11-07T00:38:58.931Z,7.6
2016-11-07T00:39:58.979Z,7.59
2016-11-07T00:40:59.044Z,7.44
2016-11-07T00:41:58.998Z,7.6
2016-11-07T00:42:58.940Z,7.56
2016-11-07T00:43:59.354Z,7.53
2016-11-07T00:44:58.947Z,7.52
2016-11-07T00:45:59.040Z,7.58
2016-11-07T00:46:58.978Z,7.6
2016-11-07T00:47:59.619Z,7.52
2016-11-07T00:48:59.000Z,7.66
2016-11-07T00:49:59.200Z,7.59
2016-11-07T00:50:58.958Z,7.55
2016-11-07T00:51:59.603Z,7.58
2016-11-07T00:52:59.344Z,7.6
2016-11-07T00:53:59.121Z,7.63
2016-11-07T00:54:59.153Z,7.52
2016-11-07T00:55:59.107Z,7.67
2016-11-07T00:56:59.031Z,7.59
2016-11-07T00:57:59.213Z,7.45
2016-11-07T00:58:59.030Z,7.55
2016-11-07T00:59:59.085Z,7.52
2016-11-07T01:00:59.414Z,7.6
2016-11-07T01:01:59.272Z,7.53
2016-11-07T01:02:59.091Z,7.52
2016-11-07T01:03:59.757Z,7.52
2016-11-07T01:04:59.222Z,7.5
2016-11-07T01:05:59.019Z,7.55
2016-11-07T01:06:59.114Z,7.58
2016-11-07T01:07:58.989Z,7.56
2016-11-07T01:08:59.296Z,7.52
2016-11-07T01:09:59.146Z,7.53
2016-11-07T01:10:59.054Z,7.63
2016-11-07T01:11:59.261Z,7.55
2016-11-07T01:12:59.008Z,7.63
2016-11-07T01:13:59.005Z,7.49
2016-11-07T01:14:58.964Z,7.59
2016-11-07T01:15:59.229Z,7.56
2016-11-07T01:16:58.966Z,7.52
2016-11-07T01:17:58.985Z,7.55
2016-11-07T01:18:58.978Z,7.42
2016-11-07T01:19:58.985Z,7.5
2016-11-07T01:20:59.491Z,7.66
2016-11-07T01:21:58.945Z,7.58
2016-11-07T01:22:58.959Z,7.59
2016-11-07T01:23:58.987Z,7.59
2016-11-07T01:24:58.954Z,7.59
2016-11-07T01:25:59.010Z,7.6
2016-11-07T01:26:58.946Z,7.67
2016-11-07T01:27:58.976Z,7.52
2016-11-07T01:28:59.097Z,7.63
2016-11-07T01:29:58.969Z,7.63
2016-11-07T01:30:59.006Z,7.55
2016-11-07T01:31:58.985Z,7.56
2016-11-07T01:32:59.028Z,7.62
2016-11-07T01:33:58.973Z,7.58
2016-11-07T01:34:59.004Z,7.58
2016-11-07T01:35:58.959Z,7.62
2016-11-07T01:36:59.041Z,7.52
2016-11-07T01:37:59.003Z,7.55
2016-11-07T01:38:58.991Z,7.63
2016-11-07T01:39:58.989Z,7.58
2016-11-07T01:40:59.272Z,7.55
2016-11-07T01:41:59.095Z,7.5
2016-11-07T01:42:59.923Z,7.58
2016-11-07T01:43:58.983Z,7.56
2016-11-07T01:44:59.011Z,7.52
2016-11-07T01:46:00.919Z,7.45
2016-11-07T01:46:59.011Z,7.55
2016-11-07T01:47:59.018Z,7.35
2016-11-07T01:48:58.993Z,7.35
2016-11-07T01:49:59.355Z,7.47
2016-11-07T01:50:59.067Z,7.4
2016-11-07T01:51:58.969Z,7.56
2016-11-07T01:52:58.982Z,7.52
2016-11-07T01:53:59.017Z,7.45
2016-11-07T01:54:59.169Z,7.53
2016-11-07T01:55:59.011Z,7.4
2016-11-07T01:56:59.297Z,7.5
2016-11-07T01:57:58.989Z,7.34
2016-11-07T01:58:59.001Z,7.5
2016-11-07T01:59:58.983Z,7.31
2016-11-07T02:00:59.815Z,7.45
2016-11-07T02:01:59.276Z,7.42
2016-11-07T02:02:58.976Z,7.38
2016-11-07T02:03:58.972Z,7.52
2016-11-07T02:04:58.989Z,7.42
2016-11-07T02:05:59.037Z,7.32
2016-11-07T02:06:59.949Z,7.5
2016-11-07T02:07:59.024Z,7.52
2016-11-07T02:08:59.034Z,7.5
2016-11-07T02:09:58.996Z,7.44
2016-11-07T02:10:59.037Z,7.47
2016-11-07T02:11:58.987Z,7.34
2016-11-07T02:12:58.999Z,7.44
2016-11-07T02:13:58.992Z,7.44
2016-11-07T02:14:58.995Z,7.5
2016-11-07T02:15:59.131Z,7.38
2016-11-07T02:16:59.008Z,7.44
2016-11-07T02:17:59.029Z,7.31
2016-11-07T02:18:59.038Z,7.4
2016-11-07T02:19:59.146Z,7.42
2016-11-07T02:20:59.751Z,7.41
2016-11-07T02:21:59.015Z,7.42
2016-11-07T02:22:59.030Z,7.45
2016-11-07T02:23:59.022Z,7.45
2016-11-07T02:24:59.076Z,7.4
2016-11-07T02:25:59.024Z,7.5
2016-11-07T02:26:59.040Z,7.35
2016-11-07T02:27:59.126Z,7.47
2016-11-07T02:28:59.063Z,7.44
2016-11-07T02:29:59.022Z,7.41
2016-11-07T02:30:59.151Z,7.53
2016-11-07T02:31:59.037Z,7.4
2016-11-07T02:32:59.187Z,7.45
2016-11-07T02:33:59.006Z,7.4
2016-11-07T02:34:59.027Z,7.42
2016-11-07T02:35:59.003Z,7.41
2016-11-07T02:36:59.056Z,7.49
2016-11-07T02:37:59.072Z,7.47
2016-11-07T02:38:59.037Z,7.41
2016-11-07T02:39:59.025Z,7.41
2016-11-07T02:40:59.028Z,7.5
2016-11-07T02:41:59.038Z,7.49
2016-11-07T02:42:59.031Z,7.45
2016-11-07T02:43:59.006Z,7.44
2016-11-07T02:44:59.016Z,7.52
2016-11-07T02:45:59.006Z,7.42
2016-11-07T02:46:59.026Z,7.44
2016-11-07T02:47:59.036Z,7.45
2016-11-07T02:48:59.014Z,7.38
2016-11-07T02:49:59.034Z,7.41
2016-11-07T02:50:59.022Z,7.38
2016-11-07T02:51:59.031Z,7.53
2016-11-07T02:52:59.037Z,7.4
2016-11-07T02:53:59.015Z,7.45
2016-11-07T02:54:59.041Z,7.37
2016-11-07T02:55:59.066Z,7.44
2016-11-07T02:56:59.069Z,7.44
2016-11-07T02:57:59.060Z,7.52
2016-11-07T02:58:59.051Z,7.62
2016-11-07T02:59:59.038Z,7.42
2016-11-07T03:00:59.349Z,7.55
2016-11-07T03:01:59.143Z,7.44
2016-11-07T03:02:59.078Z,7.56
2016-11-07T03:03:59.039Z,7.49
2016-11-07T03:04:59.054Z,7.47
2016-11-07T03:05:59.057Z,7.5
2016-11-07T03:06:59.050Z,7.49
2016-11-07T03:07:59.060Z,7.44
2016-11-07T03:08:59.031Z,7.47
2016-11-07T03:09:59.050Z,7.56
2016-11-07T03:10:59.153Z,7.44
2016-11-07T03:11:59.071Z,7.41
2016-11-07T03:12:59.057Z,7.49
2016-11-07T03:13:59.041Z,7.53
2016-11-07T03:14:59.058Z,7.35
2016-11-07T03:15:59.012Z,7.4
2016-11-07T03:16:59.073Z,7.41
2016-11-07T03:17:59.077Z,7.4
2016-11-07T03:18:59.047Z,7.32
2016-11-07T03:19:59.055Z,7.4
2016-11-07T03:20:59.718Z,7.37
2016-11-07T03:21:59.076Z,7.24
2016-11-07T03:22:59.073Z,7.26
2016-11-07T03:23:59.097Z,7.44
2016-11-07T03:24:59.128Z,7.23
2016-11-07T03:25:59.080Z,7.32
2016-11-07T03:26:59.227Z,7.23
2016-11-07T03:27:59.071Z,7.29
2016-11-07T03:28:59.067Z,7.37
2016-11-07T03:29:59.057Z,7.22
2016-11-07T03:30:59.063Z,7.24
2016-11-07T03:31:59.063Z,7.19
2016-11-07T03:32:59.092Z,7.26
2016-11-07T03:33:59.063Z,7.27
2016-11-07T03:34:59.090Z,7.05
2016-11-07T03:35:59.088Z,7.19
2016-11-07T03:36:59.086Z,7.17
2016-11-07T03:37:59.755Z,7.22
2016-11-07T03:38:59.094Z,7.12
2016-11-07T03:39:59.093Z,7.09
2016-11-07T03:40:59.089Z,7.09
2016-11-07T03:41:59.080Z,6.97
2016-11-07T03:42:59.086Z,6.97
2016-11-07T03:43:59.064Z,6.87
2016-11-07T03:44:59.531Z,6.98
2016-11-07T03:45:59.106Z,6.81
2016-11-07T03:46:59.068Z,6.8
2016-11-07T03:47:59.092Z,6.81
2016-11-07T03:48:59.097Z,6.91
2016-11-07T03:49:59.061Z,6.9
2016-11-07T03:50:59.105Z,6.73
2016-11-07T03:51:59.102Z,6.72
2016-11-07T03:52:59.076Z,6.73
2016-11-07T03:53:59.067Z,6.77
2016-11-07T03:54:59.076Z,6.71
2016-11-07T03:55:59.079Z,6.62
2016-11-07T03:56:59.736Z,6.71
2016-11-07T03:57:59.098Z,6.66
2016-11-07T03:58:59.073Z,6.63
2016-11-07T03:59:59.124Z,6.5
2016-11-07T04:00:59.065Z,6.56
2016-11-07T04:01:59.086Z,6.48
2016-11-07T04:02:59.556Z,6.56
2016-11-07T04:03:59.172Z,6.51
2016-11-07T04:04:59.078Z,6.61
2016-11-07T04:05:59.077Z,6.43
2016-11-07T04:06:59.102Z,6.43
2016-11-07T04:07:59.129Z,6.56
2016-11-07T04:08:59.158Z,6.54
2016-11-07T04:09:59.087Z,6.33
2016-11-07T04:10:59.091Z,6.63
2016-11-07T04:11:59.084Z,6.51
2016-11-07T04:12:59.119Z,6.43
2016-11-07T04:13:59.084Z,6.47
2016-11-07T04:14:59.076Z,6.47
2016-11-07T04:15:59.089Z,6.5
2016-11-07T04:16:59.956Z,6.54
2016-11-07T04:17:59.131Z,6.46
2016-11-07T04:18:59.143Z,6.53
2016-11-07T04:19:59.158Z,6.54
2016-11-07T04:20:59.093Z,6.65
2016-11-07T04:21:59.088Z,6.54
2016-11-07T04:22:59.115Z,6.51
2016-11-07T04:23:59.118Z,6.68
2016-11-07T04:24:59.135Z,6.62
2016-11-07T04:25:59.113Z,6.69
2016-11-07T04:26:59.166Z,6.53
2016-11-07T04:28:00.643Z,6.65
2016-11-07T04:28:59.151Z,6.63
2016-11-07T04:29:59.104Z,6.56
2016-11-07T04:30:59.105Z,6.56
2016-11-07T04:31:59.129Z,6.71
2016-11-07T04:32:59.124Z,6.71
2016-11-07T04:33:59.132Z,6.76
2016-11-07T04:34:59.189Z,6.68
2016-11-07T04:35:59.106Z,6.63
2016-11-07T04:36:59.423Z,6.69
2016-11-07T04:37:59.102Z,6.68
2016-11-07T04:38:59.092Z,6.72
2016-11-07T04:39:59.112Z,6.71
2016-11-07T04:40:59.102Z,6.68
2016-11-07T04:41:59.099Z,6.79
2016-11-07T04:42:59.148Z,6.72
2016-11-07T04:43:59.140Z,6.79
2016-11-07T04:44:59.748Z,6.76
2016-11-07T04:45:59.212Z,6.8
2016-11-07T04:46:59.134Z,6.73
2016-11-07T04:47:59.150Z,6.76
2016-11-07T04:48:59.125Z,6.84
2016-11-07T04:49:59.106Z,6.81
2016-11-07T04:50:59.128Z,6.69
2016-11-07T04:51:59.137Z,6.76
2016-11-07T04:52:59.144Z,6.83
2016-11-07T04:53:59.119Z,6.97
2016-11-07T04:54:59.140Z,6.9
2016-11-07T04:55:59.186Z,6.83
2016-11-07T04:56:59.147Z,6.8
2016-11-07T04:57:59.141Z,7.01
2016-11-07T04:58:59.147Z,6.91
2016-11-07T04:59:59.152Z,6.81
2016-11-07T05:00:59.132Z,6.95
2016-11-07T05:01:59.129Z,6.86
2016-11-07T05:02:59.166Z,6.9
2016-11-07T05:03:59.142Z,6.91
2016-11-07T05:04:59.157Z,6.95
2016-11-07T05:05:59.168Z,6.91
2016-11-07T05:06:59.176Z,6.87
2016-11-07T05:07:59.192Z,7.05
2016-11-07T05:08:59.186Z,6.99
2016-11-07T05:09:59.201Z,6.9
2016-11-07T05:10:59.173Z,6.94
2016-11-07T05:11:59.161Z,7.02
2016-11-07T05:12:59.193Z,6.9
2016-11-07T05:13:59.164Z,6.9
2016-11-07T05:14:59.139Z,6.9
2016-11-07T05:15:59.145Z,7.13
2016-11-07T05:16:59.160Z,7.04
2016-11-07T05:17:59.142Z,7.04
2016-11-07T05:18:59.182Z,7.05
2016-11-07T05:19:59.189Z,6.97
2016-11-07T05:20:59.183Z,6.98
2016-11-07T05:21:59.166Z,7.01
2016-11-07T05:22:59.189Z,6.99
2016-11-07T05:23:59.169Z,6.86
2016-11-07T05:24:59.150Z,7.05
2016-11-07T05:25:59.141Z,6.99
2016-11-07T05:26:59.160Z,6.99
2016-11-07T05:27:59.192Z,7.09
2016-11-07T05:28:59.134Z,7.01
2016-11-07T05:30:00.105Z,7.15
2016-11-07T05:30:59.160Z,6.98
2016-11-07T05:31:59.138Z,7.07
2016-11-07T05:32:59.160Z,7.12
2016-11-07T05:33:59.151Z,7.05
2016-11-07T05:34:59.152Z,7.05
2016-11-07T05:35:59.125Z,7.22
2016-11-07T05:36:59.976Z,6.99
2016-11-07T05:37:59.167Z,7.02
2016-11-07T05:38:59.129Z,7.12
2016-11-07T05:39:59.163Z,7.15
2016-11-07T05:40:59.171Z,7.08
2016-11-07T05:41:59.176Z,7.09
2016-11-07T05:42:59.198Z,7.01
2016-11-07T05:43:59.201Z,7.17
2016-11-07T05:44:59.179Z,7.2
2016-11-07T05:45:59.191Z,7.12
2016-11-07T05:46:59.183Z,7.12
2016-11-07T05:47:59.179Z,7.17
2016-11-07T05:48:59.186Z,7.05
2016-11-07T05:49:59.181Z,7.15
2016-11-07T05:50:59.161Z,7.26
2016-11-07T05:51:59.141Z,7.12
2016-11-07T05:52:59.197Z,7.12
2016-11-07T05:53:59.188Z,7.16
2016-11-07T05:54:59.163Z,7.13
2016-11-07T05:55:59.143Z,7.04
2016-11-07T05:56:59.218Z,7.08
2016-11-07T05:57:59.196Z,6.97
2016-11-07T05:58:59.147Z,7.07
2016-11-07T05:59:59.185Z,7.09
2016-11-07T06:00:59.163Z,7.04
2016-11-07T06:01:59.185Z,7.07
2016-11-07T06:02:59.186Z,7.07
2016-11-07T06:03:59.176Z,7.19
2016-11-07T06:04:59.190Z,7.24
2016-11-07T06:05:59.188Z,7.27
2016-11-07T06:06:59.233Z,7.24
2016-11-07T06:07:59.245Z,7.24
2016-11-07T06:08:59.358Z,7.2
2016-11-07T06:09:59.206Z,7.19
2016-11-07T06:10:59.167Z,7.23
2016-11-07T06:11:59.199Z,7.17
2016-11-07T06:12:59.198Z,7.22
2016-11-07T06:13:59.185Z,7.24
2016-11-07T06:14:59.151Z,7.15
2016-11-07T06:15:59.816Z,7.19
2016-11-07T06:16:59.191Z,7.19
2016-11-07T06:17:59.247Z,7.19
2016-11-07T06:18:59.196Z,7.08
2016-11-07T06:19:59.202Z,7.19
2016-11-07T06:20:59.202Z,7.22
2016-11-07T06:21:59.209Z,7.2
2016-11-07T06:22:59.239Z,7.17
2016-11-07T06:23:59.201Z,7.2
2016-11-07T06:24:59.214Z,7.27
2016-11-07T06:25:59.202Z,7.16
2016-11-07T06:26:59.234Z,7.23
2016-11-07T06:27:59.207Z,7.26
2016-11-07T06:28:59.185Z,7.24
2016-11-07T06:29:59.234Z,7.2
2016-11-07T06:30:59.198Z,7.27
2016-11-07T06:31:59.197Z,7.22
2016-11-07T06:32:59.238Z,7.24
2016-11-07T06:33:59.226Z,7.29
2016-11-07T06:34:59.239Z,7.27
2016-11-07T06:35:59.206Z,7.22
2016-11-07T06:36:59.200Z,7.24
2016-11-07T06:37:59.245Z,7.24
2016-11-07T06:38:59.269Z,7.32
2016-11-07T06:39:59.825Z,7.27
2016-11-07T06:40:59.237Z,7.27
2016-11-07T06:41:59.233Z,7.22
2016-11-07T06:42:59.239Z,7.23
2016-11-07T06:43:59.436Z,7.23
2016-11-07T06:44:59.205Z,7.34
2016-11-07T06:45:59.212Z,7.23
2016-11-07T06:46:59.189Z,7.22
2016-11-07T06:48:00.289Z,7.35
2016-11-07T06:48:59.714Z,7.34
2016-11-07T06:49:59.733Z,7.24
2016-11-07T06:50:59.233Z,7.27
2016-11-07T06:51:59.236Z,7.32
2016-11-07T06:52:59.212Z,7.31
2016-11-07T06:53:59.356Z,7.27
2016-11-07T06:54:59.302Z,7.24
2016-11-07T06:55:59.243Z,7.26
2016-11-07T06:56:59.231Z,7.32
2016-11-07T06:57:59.241Z,7.34
2016-11-07T06:58:59.217Z,7.34
2016-11-07T06:59:59.196Z,7.26
2016-11-07T07:00:59.258Z,7.27
2016-11-07T07:01:59.262Z,7.35
2016-11-07T07:02:59.770Z,7.35
2016-11-07T07:03:59.339Z,7.32
2016-11-07T07:04:59.313Z,7.32
2016-11-07T07:05:59.249Z,7.31
2016-11-07T07:06:59.294Z,7.31
2016-11-07T07:07:59.322Z,7.35
2016-11-07T07:09:00.213Z,7.44
2016-11-07T07:09:59.371Z,7.37
2016-11-07T07:10:59.316Z,7.4
2016-11-07T07:11:59.284Z,7.37
2016-11-07T07:12:59.297Z,7.4
2016-11-07T07:13:59.284Z,7.42
2016-11-07T07:14:59.321Z,7.49
2016-11-07T07:15:59.291Z,7.37
2016-11-07T07:16:59.265Z,7.4
2016-11-07T07:18:00.113Z,7.35
2016-11-07T07:18:59.233Z,7.45
2016-11-07T07:19:59.316Z,7.34
2016-11-07T07:20:59.348Z,7.4
2016-11-07T07:21:59.321Z,7.35
2016-11-07T07:22:59.313Z,7.37
2016-11-07T07:23:59.262Z,7.38
2016-11-07T07:24:59.368Z,7.47
2016-11-07T07:25:59.321Z,7.41
2016-11-07T07:26:59.252Z,7.44
2016-11-07T07:27:59.258Z,7.42
2016-11-07T07:28:59.266Z,7.37
2016-11-07T07:29:59.304Z,7.38
2016-11-07T07:30:59.269Z,7.49
2016-11-07T07:31:59.271Z,7.5
2016-11-07T07:32:59.292Z,7.4
2016-11-07T07:34:00.068Z,7.42
2016-11-07T07:34:59.240Z,7.42
2016-11-07T07:35:59.330Z,7.31
2016-11-07T07:36:59.263Z,7.45
2016-11-07T07:37:59.286Z,7.6
2016-11-07T07:38:59.247Z,7.6
2016-11-07T07:39:59.269Z,7.47
2016-11-07T07:40:59.422Z,7.47
2016-11-07T07:41:59.285Z,7.47
2016-11-07T07:42:59.274Z,7.53
2016-11-07T07:43:59.280Z,7.58
2016-11-07T07:44:59.246Z,7.59
2016-11-07T07:45:59.852Z,7.55
2016-11-07T07:46:59.287Z,7.53
2016-11-07T07:47:59.326Z,7.6
2016-11-07T07:48:59.260Z,7.5
2016-11-07T07:49:59.278Z,7.67
2016-11-07T07:50:59.304Z,7.6
2016-11-07T07:51:59.777Z,7.71
2016-11-07T07:52:59.285Z,7.62
2016-11-07T07:53:59.329Z,7.75
2016-11-07T07:54:59.272Z,7.75
2016-11-07T07:55:59.303Z,7.78
2016-11-07T07:56:59.258Z,7.63
2016-11-07T07:57:59.263Z,7.77
2016-11-07T07:58:59.265Z,7.77
2016-11-07T07:59:59.303Z,7.77
2016-11-07T08:00:59.249Z,7.69
2016-11-07T08:01:59.372Z,7.79
2016-11-07T08:02:59.292Z,7.81
2016-11-07T08:03:59.311Z,7.82
2016-11-07T08:04:59.279Z,7.85
2016-11-07T08:06:00.677Z,7.93
2016-11-07T08:07:00.507Z,7.96
2016-11-07T08:08:00.290Z,7.93
2016-11-07T08:08:59.445Z,7.93
2016-11-07T08:09:59.458Z,7.97
2016-11-07T08:10:59.534Z,8
2016-11-07T08:11:59.505Z,8.04
2016-11-07T08:12:59.565Z,8.17
2016-11-07T08:14:00.227Z,8.14
2016-11-07T08:15:00.046Z,8.07
2016-11-07T08:16:00.139Z,8.12
2016-11-07T08:16:59.277Z,8.1
2016-11-07T08:18:00.286Z,8.18
2016-11-07T08:18:59.269Z,8.12
2016-11-07T08:19:59.324Z,8.18
2016-11-07T08:20:59.267Z,8.12
2016-11-07T08:21:59.291Z,8.11
2016-11-07T08:22:59.303Z,8.1
2016-11-07T08:23:59.542Z,8.11
2016-11-07T08:24:59.274Z,8.18
2016-11-07T08:25:59.320Z,8.15
2016-11-07T08:26:59.513Z,8.12
2016-11-07T08:27:59.290Z,8.17
2016-11-07T08:28:59.575Z,8.15
2016-11-07T08:29:59.316Z,8.2
2016-11-07T08:30:59.547Z,8.28
2016-11-07T08:31:59.318Z,8.29
2016-11-07T08:32:59.300Z,8.2
2016-11-07T08:33:59.284Z,8.21
2016-11-07T08:34:59.363Z,8.28
2016-11-07T08:36:00.258Z,8.29
2016-11-07T08:36:59.300Z,8.39
2016-11-07T08:37:59.288Z,8.4
2016-11-07T08:38:59.313Z,8.35
2016-11-07T08:40:00.037Z,8.39
2016-11-07T08:40:59.656Z,8.32
2016-11-07T08:41:59.336Z,8.44
2016-11-07T08:42:59.355Z,8.51
2016-11-07T08:43:59.337Z,8.48
2016-11-07T08:44:59.387Z,8.35
2016-11-07T08:45:59.329Z,8.5
2016-11-07T08:46:59.373Z,8.51
2016-11-07T08:47:59.357Z,8.47
2016-11-07T08:48:59.336Z,8.4
2016-11-07T08:49:59.368Z,8.54
2016-11-07T08:50:59.290Z,8.51
2016-11-07T08:51:59.284Z,8.53
2016-11-07T08:52:59.276Z,8.48
2016-11-07T08:53:59.968Z,8.45
2016-11-07T08:54:59.348Z,8.42
2016-11-07T08:55:59.311Z,8.53
2016-11-07T08:56:59.348Z,8.53
2016-11-07T08:57:59.322Z,8.44
2016-11-07T08:59:00.074Z,8.44
2016-11-07T08:59:59.986Z,8.42
2016-11-07T09:00:59.313Z,8.29
2016-11-07T09:01:59.351Z,8.51
2016-11-07T09:03:00.263Z,8.39
2016-11-07T09:04:00.183Z,8.25
2016-11-07T09:04:59.299Z,8.47
2016-11-07T09:05:59.786Z,8.42
2016-11-07T09:06:59.325Z,8.32
2016-11-07T09:07:59.332Z,8.32
2016-11-07T09:08:59.325Z,8.33
2016-11-07T09:09:59.319Z,8.35
2016-11-07T09:10:59.453Z,8.44
2016-11-07T09:11:59.772Z,8.4
2016-11-07T09:12:59.313Z,8.33
2016-11-07T09:13:59.356Z,8.37
2016-11-07T09:14:59.388Z,8.4
2016-11-07T09:15:59.356Z,8.4
2016-11-07T09:16:59.937Z,8.47
2016-11-07T09:18:00.309Z,8.47
2016-11-07T09:18:59.332Z,8.4
2016-11-07T09:19:59.336Z,8.44
2016-11-07T09:20:59.317Z,8.47
2016-11-07T09:21:59.359Z,8.48
2016-11-07T09:22:59.365Z,8.51
2016-11-07T09:23:59.354Z,8.47
2016-11-07T09:24:59.325Z,8.48
2016-11-07T09:25:59.357Z,8.47
2016-11-07T09:26:59.354Z,8.53
2016-11-07T09:27:59.370Z,8.42
2016-11-07T09:28:59.356Z,8.48
2016-11-07T09:29:59.332Z,8.4
2016-11-07T09:30:59.335Z,8.47
2016-11-07T09:31:59.684Z,8.45
2016-11-07T09:32:59.317Z,8.54
2016-11-07T09:33:59.556Z,8.53
2016-11-07T09:34:59.793Z,8.47
2016-11-07T09:35:59.323Z,8.57
2016-11-07T09:36:59.438Z,8.58
2016-11-07T09:37:59.511Z,8.48
2016-11-07T09:38:59.558Z,8.53
2016-11-07T09:39:59.422Z,8.51
2016-11-07T09:41:00.094Z,8.53
2016-11-07T09:41:59.377Z,8.42
2016-11-07T09:42:59.749Z,8.48
2016-11-07T09:43:59.674Z,8.5
2016-11-07T09:44:59.730Z,8.5
2016-11-07T09:45:59.524Z,8.42
2016-11-07T09:46:59.743Z,8.47
2016-11-07T09:48:00.018Z,8.55
2016-11-07T09:48:59.642Z,8.51
2016-11-07T09:49:59.757Z,8.51
2016-11-07T09:50:59.452Z,8.54
2016-11-07T09:51:59.449Z,8.45
2016-11-07T09:53:01.086Z,8.57
2016-11-07T09:53:59.604Z,8.45
2016-11-07T09:54:59.574Z,8.44
2016-11-07T09:55:59.781Z,8.37
2016-11-07T09:56:59.540Z,8.45
2016-11-07T09:58:00.348Z,8.47
2016-11-07T09:58:59.588Z,8.53
2016-11-07T10:00:00.065Z,8.54
2016-11-07T10:00:59.550Z,8.53
2016-11-07T10:02:00.228Z,8.54
2016-11-07T10:02:59.545Z,8.57
2016-11-07T10:03:59.549Z,8.57
2016-11-07T10:05:00.414Z,8.6
2016-11-07T10:05:59.562Z,8.69
2016-11-07T10:06:59.953Z,8.45
2016-11-07T10:08:00.549Z,8.53
2016-11-07T10:08:59.538Z,8.62
2016-11-07T10:09:59.519Z,8.66
2016-11-07T10:11:00.113Z,8.57
2016-11-07T10:11:59.573Z,8.63
2016-11-07T10:12:59.469Z,8.53
2016-11-07T10:14:00.014Z,8.63
2016-11-07T10:14:59.493Z,8.63
2016-11-07T10:15:59.547Z,8.53
2016-11-07T10:16:59.527Z,8.6
2016-11-07T10:18:00.133Z,8.55
2016-11-07T10:18:59.505Z,8.51
2016-11-07T10:20:00.028Z,8.55
2016-11-07T10:20:59.604Z,8.5
2016-11-07T10:21:59.646Z,8.47
2016-11-07T10:23:00.018Z,8.53
2016-11-07T10:23:59.575Z,8.55
2016-11-07T10:24:59.564Z,8.51
2016-11-07T10:25:59.553Z,8.5
2016-11-07T10:26:59.588Z,8.47
2016-11-07T10:27:59.570Z,8.42
2016-11-07T10:28:59.832Z,8.42
2016-11-07T10:29:59.513Z,8.48
2016-11-07T10:31:00.027Z,8.48
2016-11-07T10:32:00.479Z,8.42
2016-11-07T10:32:59.586Z,8.44
2016-11-07T10:34:00.180Z,8.29
2016-11-07T10:34:59.505Z,8.44
2016-11-07T10:35:59.547Z,8.33
2016-11-07T10:36:59.525Z,8.32
2016-11-07T10:37:59.457Z,8.3
2016-11-07T10:38:59.480Z,8.22
2016-11-07T10:39:59.386Z,8.26
2016-11-07T10:40:59.486Z,8.2
2016-11-07T10:41:59.607Z,8.29
2016-11-07T10:42:59.727Z,8.21
2016-11-07T10:43:59.448Z,8.2
2016-11-07T10:44:59.415Z,8.03
2016-11-07T10:45:59.486Z,7.96
2016-11-07T10:47:00.033Z,8.04
2016-11-07T10:48:00.754Z,8.08
2016-11-07T10:48:59.977Z,7.96
2016-11-07T10:49:59.436Z,7.85
2016-11-07T10:50:59.452Z,7.82
2016-11-07T10:52:00.790Z,7.81
2016-11-07T10:52:59.445Z,7.63
2016-11-07T10:54:00.249Z,7.63
2016-11-07T10:54:59.434Z,7.66
2016-11-07T10:55:59.671Z,7.52
2016-11-07T10:56:59.417Z,7.37
2016-11-07T10:58:00.583Z,7.52
2016-11-07T10:58:59.467Z,7.45
2016-11-07T10:59:59.536Z,7.49
2016-11-07T11:00:59.425Z,7.53
2016-11-07T11:01:59.454Z,7.5
2016-11-07T11:02:59.490Z,7.42
2016-11-07T11:03:59.582Z,7.59
2016-11-07T11:04:59.556Z,7.52
2016-11-07T11:05:59.623Z,7.37
2016-11-07T11:06:59.511Z,7.42
2016-11-07T11:07:59.462Z,7.44
2016-11-07T11:09:00.251Z,7.53
2016-11-07T11:09:59.513Z,7.53
2016-11-07T11:10:59.439Z,7.56
2016-11-07T11:11:59.386Z,7.59
2016-11-07T11:12:59.738Z,7.56
2016-11-07T11:13:59.706Z,7.59
2016-11-07T11:14:59.650Z,7.56
2016-11-07T11:15:59.457Z,7.6
2016-11-07T11:16:59.620Z,7.59
2016-11-07T11:17:59.646Z,7.58
2016-11-07T11:18:59.752Z,7.6
2016-11-07T11:19:59.451Z,7.53
2016-11-07T11:21:00.058Z,7.62
2016-11-07T11:21:59.415Z,7.6
2016-11-07T11:22:59.457Z,7.66
2016-11-07T11:23:59.490Z,7.5
2016-11-07T11:24:59.470Z,7.67
2016-11-07T11:25:59.439Z,7.55
2016-11-07T11:26:59.458Z,7.66
2016-11-07T11:27:59.607Z,7.55
2016-11-07T11:28:59.465Z,7.62
2016-11-07T11:29:59.457Z,7.59
2016-11-07T11:30:59.460Z,7.53
2016-11-07T11:31:59.465Z,7.56
2016-11-07T11:32:59.441Z,7.58
2016-11-07T11:33:59.463Z,7.59
2016-11-07T11:34:59.463Z,7.56
2016-11-07T11:35:59.473Z,7.66
2016-11-07T11:36:59.441Z,7.59
2016-11-07T11:37:59.458Z,7.59
2016-11-07T11:39:00.206Z,7.52
2016-11-07T11:39:59.407Z,7.5
2016-11-07T11:40:59.442Z,7.6
2016-11-07T11:41:59.422Z,7.6
2016-11-07T11:42:59.490Z,7.63
2016-11-07T11:43:59.496Z,7.49
2016-11-07T11:44:59.467Z,7.55
2016-11-07T11:45:59.489Z,7.55
2016-11-07T11:46:59.483Z,7.5
2016-11-07T11:47:59.540Z,7.52
2016-11-07T11:48:59.463Z,7.59
2016-11-07T11:49:59.466Z,7.52
2016-11-07T11:51:00.655Z,7.53
2016-11-07T11:52:00.514Z,7.5
2016-11-07T11:53:00.678Z,7.56
2016-11-07T11:53:59.479Z,7.47
2016-11-07T11:55:01.665Z,7.63
2016-11-07T11:55:59.473Z,7.58
2016-11-07T11:56:59.479Z,7.63
2016-11-07T11:57:59.447Z,7.5
2016-11-07T11:58:59.665Z,7.63
2016-11-07T11:59:59.783Z,7.55
2016-11-07T12:00:59.600Z,7.56
2016-11-07T12:01:59.588Z,7.5
2016-11-07T12:02:59.532Z,7.6
2016-11-07T12:03:59.722Z,7.52
2016-11-07T12:04:59.701Z,7.63
2016-11-07T12:05:59.476Z,7.59
2016-11-07T12:06:59.507Z,7.6
2016-11-07T12:07:59.566Z,7.58
2016-11-07T12:08:59.513Z,7.5
2016-11-07T12:09:59.551Z,7.47
2016-11-07T12:10:59.541Z,7.44
2016-11-07T12:11:59.823Z,7.52
2016-11-07T12:13:00.344Z,7.63
2016-11-07T12:13:59.458Z,7.6
2016-11-07T12:14:59.901Z,7.49
2016-11-07T12:15:59.509Z,7.47
2016-11-07T12:16:59.496Z,7.5
2016-11-07T12:17:59.582Z,7.58
2016-11-07T12:19:00.142Z,7.56
2016-11-07T12:19:59.519Z,7.38
2016-11-07T12:20:59.521Z,7.55
2016-11-07T12:21:59.501Z,7.56
2016-11-07T12:22:59.535Z,7.52
2016-11-07T12:23:59.568Z,7.59
2016-11-07T12:24:59.492Z,7.62
2016-11-07T12:25:59.561Z,7.59
2016-11-07T12:26:59.533Z,7.58
2016-11-07T12:27:59.510Z,7.6
2016-11-07T12:28:59.527Z,7.62
2016-11-07T12:30:00.508Z,7.56
2016-11-07T12:30:59.639Z,7.5
2016-11-07T12:31:59.472Z,7.53
2016-11-07T12:32:59.465Z,7.53
2016-11-07T12:33:59.542Z,7.6
2016-11-07T12:34:59.500Z,7.42
2016-11-07T12:35:59.507Z,7.47
2016-11-07T12:36:59.557Z,7.29
2016-11-07T12:37:59.460Z,7.26
2016-11-07T12:38:59.488Z,7.22
2016-11-07T12:39:59.459Z,7.05
2016-11-07T12:40:59.459Z,7.17
2016-11-07T12:41:59.508Z,7.15
2016-11-07T12:42:59.486Z,7.15
2016-11-07T12:43:59.511Z,7.04
2016-11-07T12:44:59.495Z,7.04
2016-11-07T12:45:59.475Z,6.99
2016-11-07T12:46:59.550Z,7.04
2016-11-07T12:47:59.508Z,6.99
2016-11-07T12:48:59.525Z,6.99
2016-11-07T12:49:59.467Z,6.94
2016-11-07T12:50:59.480Z,7.02
2016-11-07T12:51:59.495Z,6.94
2016-11-07T12:52:59.465Z,6.66
2016-11-07T12:53:59.521Z,6.89
2016-11-07T12:54:59.491Z,6.86
2016-11-07T12:55:59.574Z,6.87
2016-11-07T12:56:59.486Z,7.01
2016-11-07T12:57:59.536Z,6.97
2016-11-07T12:58:59.498Z,6.86
2016-11-07T12:59:59.520Z,6.81
2016-11-07T13:00:59.497Z,6.94
2016-11-07T13:01:59.539Z,6.83
2016-11-07T13:02:59.680Z,6.73
2016-11-07T13:03:59.517Z,6.99
2016-11-07T13:04:59.540Z,6.83
2016-11-07T13:05:59.514Z,6.83
2016-11-07T13:06:59.486Z,6.84
2016-11-07T13:07:59.529Z,6.91
2016-11-07T13:08:59.530Z,6.99
2016-11-07T13:09:59.523Z,6.95
2016-11-07T13:10:59.504Z,6.95
2016-11-07T13:11:59.485Z,6.91
2016-11-07T13:12:59.491Z,6.89
2016-11-07T13:13:59.498Z,6.9
2016-11-07T13:14:59.485Z,6.97
2016-11-07T13:15:59.533Z,6.94
2016-11-07T13:16:59.537Z,6.91
2016-11-07T13:17:59.578Z,7.04
2016-11-07T13:19:00.173Z,6.76
2016-11-07T13:20:00.410Z,6.76
2016-11-07T13:21:00.484Z,6.95
2016-11-07T13:21:59.490Z,6.89
2016-11-07T13:22:59.765Z,6.81